createdAt,value
2018-12-08T00:00:27.633Z,91.27
2018-12-08T00:01:27.623Z,91.69
2018-12-08T00:02:27.609Z,91.38
2018-12-08T00:03:27.600Z,92.21
2018-12-08T00:04:27.591Z,92.00
2018-12-08T00:05:27.581Z,92.10
2018-12-08T00:06:27.567Z,92.00
2018-12-08T00:07:27.558Z,92.41
2018-12-08T00:08:27.546Z,92.41
2018-12-08T00:09:27.534Z,92.25
2018-12-08T00:10:27.531Z,91.21
2018-12-08T00:11:27.515Z,91.32
2018-12-08T00:12:27.503Z,92.35
2018-12-08T00:13:27.489Z,90.97
2018-12-08T00:14:27.481Z,91.38
2018-12-08T00:15:27.495Z,91.58
2018-12-08T00:16:27.458Z,91.38
2018-12-08T00:17:27.447Z,90.76
2018-12-08T00:18:27.438Z,90.86
2018-12-08T00:19:27.428Z,90.86
2018-12-08T00:20:27.413Z,91.69
2018-12-08T00:21:27.403Z,91.58
2018-12-08T00:22:27.395Z,91.48
2018-12-08T00:23:27.383Z,92.56
2018-12-08T00:24:27.375Z,92.25
2018-12-08T00:25:27.359Z,92.35
2018-12-08T00:26:27.477Z,92.46
2018-12-08T00:27:27.340Z,91.94
2018-12-08T00:28:27.329Z,91.38
2018-12-08T00:29:27.318Z,89.72
2018-12-08T00:30:27.313Z,90.45
2018-12-08T00:31:27.297Z,91.48
2018-12-08T00:32:27.284Z,90.97
2018-12-08T00:33:27.273Z,90.45
2018-12-08T00:34:27.261Z,90.86
2018-12-08T00:35:27.257Z,89.52
2018-12-08T00:36:27.382Z,89.52
2018-12-08T00:37:27.230Z,90.14
2018-12-08T00:38:27.219Z,90.86
2018-12-08T00:39:27.210Z,90.66
2018-12-08T00:40:27.199Z,91.48
2018-12-08T00:41:27.187Z,90.66
2018-12-08T00:42:27.179Z,90.14
2018-12-08T00:43:27.173Z,90.28
2018-12-08T00:44:27.155Z,91.17
2018-12-08T00:45:27.146Z,91.07
2018-12-08T00:46:27.138Z,90.70
2018-12-08T00:47:27.125Z,90.97
2018-12-08T00:48:27.113Z,90.08
2018-12-08T00:49:27.106Z,90.60
2018-12-08T00:50:27.088Z,90.49
2018-12-08T00:51:27.078Z,91.52
2018-12-08T00:52:27.066Z,91.21
2018-12-08T00:53:27.066Z,90.90
2018-12-08T00:54:27.043Z,91.21
2018-12-08T00:55:27.033Z,91.11
2018-12-08T00:56:27.026Z,88.84
2018-12-08T00:57:27.017Z,89.11
2018-12-08T00:58:27.001Z,89.93
2018-12-08T00:59:26.994Z,89.93
2018-12-08T01:00:26.980Z,89.00
2018-12-08T01:01:26.971Z,89.00
2018-12-08T01:02:26.962Z,89.31
2018-12-08T01:03:26.949Z,89.21
2018-12-08T01:04:26.939Z,89.83
2018-12-08T01:05:26.926Z,89.62
2018-12-08T01:06:26.916Z,90.03
2018-12-08T01:07:26.904Z,90.03
2018-12-08T01:08:26.895Z,90.24
2018-12-08T01:09:26.884Z,90.90
2018-12-08T01:10:26.873Z,90.28
2018-12-08T01:11:26.861Z,90.70
2018-12-08T01:12:26.855Z,91.00
2018-12-08T01:13:26.842Z,89.83
2018-12-08T01:14:26.831Z,89.21
2018-12-08T01:15:26.822Z,89.83
2018-12-08T01:16:26.813Z,89.72
2018-12-08T01:17:26.798Z,89.41
2018-12-08T01:18:26.785Z,88.69
2018-12-08T01:19:26.776Z,88.75
2018-12-08T01:20:26.763Z,89.06
2018-12-08T01:21:26.759Z,88.96
2018-12-08T01:22:26.742Z,88.54
2018-12-08T01:23:26.731Z,87.51
2018-12-08T01:24:26.720Z,87.26
2018-12-08T01:25:26.709Z,88.09
2018-12-08T01:26:26.708Z,86.34
2018-12-08T01:27:26.700Z,88.30
2018-12-08T01:28:26.677Z,86.02
2018-12-08T01:29:26.679Z,87.17
2018-12-08T01:30:26.660Z,87.99
2018-12-08T01:31:26.644Z,88.51
2018-12-08T01:32:26.632Z,87.06
2018-12-08T01:33:26.621Z,87.64
2018-12-08T01:34:26.615Z,88.98
2018-12-08T01:35:26.606Z,89.64
2018-12-08T01:36:26.598Z,90.26
2018-12-08T01:37:26.584Z,90.16
2018-12-08T01:38:26.574Z,90.67
2018-12-08T01:39:26.560Z,89.33
2018-12-08T01:40:26.551Z,88.61
2018-12-08T01:41:26.542Z,86.71
2018-12-08T01:42:26.530Z,88.26
2018-12-08T01:43:26.517Z,89.50
2018-12-08T01:44:26.508Z,89.39
2018-12-08T01:45:26.498Z,90.05
2018-12-08T01:46:26.485Z,88.51
2018-12-08T01:47:26.493Z,87.74
2018-12-08T01:48:26.464Z,86.40
2018-12-08T01:49:26.453Z,85.22
2018-12-08T01:50:26.442Z,85.22
2018-12-08T01:51:26.436Z,85.74
2018-12-08T01:52:26.419Z,84.81
2018-12-08T01:53:26.408Z,83.37
2018-12-08T01:54:26.397Z,85.64
2018-12-08T01:55:26.396Z,83.88
2018-12-08T01:56:26.378Z,82.95
2018-12-08T01:57:26.368Z,81.47
2018-12-08T01:58:26.355Z,80.96
2018-12-08T01:59:26.347Z,80.96
2018-12-08T02:00:26.331Z,83.19
2018-12-08T02:01:26.321Z,79.89
2018-12-08T02:02:26.310Z,80.92
2018-12-08T02:03:26.298Z,80.85
2018-12-08T02:04:26.288Z,83.43
2018-12-08T02:05:26.278Z,84.88
2018-12-08T02:06:26.267Z,82.44
2018-12-08T02:07:26.258Z,82.55
2018-12-08T02:08:26.247Z,81.51
2018-12-08T02:09:26.233Z,82.44
2018-12-08T02:10:26.224Z,81.41
2018-12-08T02:11:26.221Z,81.82
2018-12-08T02:12:26.210Z,81.20
2018-12-08T02:13:26.191Z,80.99
2018-12-08T02:14:26.178Z,79.76
2018-12-08T02:15:26.170Z,80.54
2018-12-08T02:16:26.160Z,82.61
2018-12-08T02:17:26.149Z,79.93
2018-12-08T02:18:26.138Z,79.93
2018-12-08T02:19:26.131Z,80.23
2018-12-08T02:20:26.114Z,80.13
2018-12-08T02:21:26.103Z,80.65
2018-12-08T02:22:26.094Z,80.03
2018-12-08T02:23:26.087Z,79.72
2018-12-08T02:24:26.069Z,79.93
2018-12-08T02:25:26.059Z,79.41
2018-12-08T02:26:26.049Z,79.30
2018-12-08T02:27:26.039Z,79.93
2018-12-08T02:28:26.028Z,80.13
2018-12-08T02:29:26.015Z,80.23
2018-12-08T02:30:26.006Z,81.89
2018-12-08T02:31:25.997Z,83.78
2018-12-08T02:32:25.989Z,83.78
2018-12-08T02:33:25.977Z,83.67
2018-12-08T02:34:25.965Z,80.68
2018-12-08T02:35:25.952Z,80.79
2018-12-08T02:36:25.945Z,82.85
2018-12-08T02:37:25.928Z,83.47
2018-12-08T02:38:25.920Z,84.71
2018-12-08T02:39:25.908Z,83.88
2018-12-08T02:40:25.897Z,81.61
2018-12-08T02:41:25.888Z,83.88
2018-12-08T02:42:25.876Z,82.85
2018-12-08T02:43:25.866Z,84.19
2018-12-08T02:44:25.853Z,83.47
2018-12-08T02:45:25.842Z,84.30
2018-12-08T02:46:25.836Z,84.75
2018-12-08T02:47:25.822Z,82.58
2018-12-08T02:48:25.813Z,84.54
2018-12-08T02:49:25.805Z,85.36
2018-12-08T02:50:25.791Z,85.06
2018-12-08T02:51:25.779Z,81.86
2018-12-08T02:52:25.770Z,83.92
2018-12-08T02:53:25.757Z,84.85
2018-12-08T02:54:25.748Z,84.75
2018-12-08T02:55:25.733Z,85.78
2018-12-08T02:56:25.727Z,85.57
2018-12-08T02:57:25.715Z,85.57
2018-12-08T02:58:25.714Z,84.23
2018-12-08T02:59:25.700Z,83.41
2018-12-08T03:00:25.679Z,83.30
2018-12-08T03:01:25.670Z,83.41
2018-12-08T03:02:25.658Z,82.58
2018-12-08T03:03:25.647Z,81.24
2018-12-08T03:04:25.638Z,83.67
2018-12-08T03:05:25.625Z,83.88
2018-12-08T03:06:25.615Z,84.19
2018-12-08T03:07:25.604Z,84.75
2018-12-08T03:08:25.593Z,84.44
2018-12-08T03:09:25.581Z,84.54
2018-12-08T03:10:25.573Z,81.55
2018-12-08T03:11:25.562Z,80.82
2018-12-08T03:12:25.551Z,84.30
2018-12-08T03:13:25.540Z,83.61
2018-12-08T03:14:25.534Z,84.64
2018-12-08T03:15:25.515Z,84.64
2018-12-08T03:16:25.506Z,84.54
2018-12-08T03:17:25.495Z,83.30
2018-12-08T03:18:25.482Z,80.99
2018-12-08T03:19:25.472Z,83.58
2018-12-08T03:20:25.463Z,84.71
2018-12-08T03:21:25.451Z,84.91
2018-12-08T03:22:25.440Z,85.43
2018-12-08T03:23:25.430Z,85.57
2018-12-08T03:24:25.416Z,85.99
2018-12-08T03:25:25.406Z,85.88
2018-12-08T03:26:25.394Z,85.27
2018-12-08T03:27:25.385Z,84.13
2018-12-08T03:28:25.374Z,82.58
2018-12-08T03:29:25.362Z,83.92
2018-12-08T03:30:25.353Z,82.58
2018-12-08T03:31:25.357Z,82.03
2018-12-08T03:32:25.330Z,83.58
2018-12-08T03:33:25.320Z,83.47
2018-12-08T03:34:25.306Z,82.44
2018-12-08T03:35:25.296Z,81.92
2018-12-08T03:36:25.292Z,81.82
2018-12-08T03:37:25.276Z,81.31
2018-12-08T03:38:25.266Z,82.23
2018-12-08T03:39:25.255Z,83.58
2018-12-08T03:40:25.243Z,83.37
2018-12-08T03:41:25.231Z,83.99
2018-12-08T03:42:25.219Z,83.47
2018-12-08T03:43:25.209Z,83.88
2018-12-08T03:44:25.199Z,84.61
2018-12-08T03:45:25.189Z,84.75
2018-12-08T03:46:25.178Z,85.06
2018-12-08T03:47:25.210Z,84.61
2018-12-08T03:48:25.157Z,83.82
2018-12-08T03:49:25.166Z,84.50
2018-12-08T03:50:25.136Z,85.22
2018-12-08T03:51:25.121Z,84.75
2018-12-08T03:52:25.115Z,85.27
2018-12-08T03:53:25.098Z,85.36
2018-12-08T03:54:25.091Z,85.36
2018-12-08T03:55:25.077Z,85.47
2018-12-08T03:56:25.067Z,85.68
2018-12-08T03:57:25.064Z,85.57
2018-12-08T03:58:25.044Z,83.61
2018-12-08T03:59:25.033Z,83.51
2018-12-08T04:00:25.024Z,83.47
2018-12-08T04:01:25.019Z,83.78
2018-12-08T04:02:25.007Z,84.09
2018-12-08T04:03:24.991Z,84.71
2018-12-08T04:04:24.983Z,84.19
2018-12-08T04:05:24.973Z,85.12
2018-12-08T04:06:24.960Z,85.12
2018-12-08T04:07:24.947Z,85.94
2018-12-08T04:08:24.936Z,85.74
2018-12-08T04:09:24.925Z,83.78
2018-12-08T04:10:24.922Z,83.99
2018-12-08T04:11:24.902Z,84.71
2018-12-08T04:12:24.890Z,84.71
2018-12-08T04:13:24.885Z,83.99
2018-12-08T04:14:24.885Z,83.58
2018-12-08T04:15:24.864Z,83.78
2018-12-08T04:16:24.845Z,84.19
2018-12-08T04:17:24.836Z,83.88
2018-12-08T04:18:24.825Z,84.71
2018-12-08T04:19:24.817Z,84.71
2018-12-08T04:20:24.817Z,83.78
2018-12-08T04:21:24.791Z,82.55
2018-12-08T04:22:24.780Z,84.40
2018-12-08T04:23:24.768Z,84.30
2018-12-08T04:24:24.760Z,85.02
2018-12-08T04:25:24.747Z,85.22
2018-12-08T04:26:24.736Z,85.85
2018-12-08T04:27:24.727Z,86.15
2018-12-08T04:28:24.755Z,85.74
2018-12-08T04:29:24.709Z,85.85
2018-12-08T04:30:24.693Z,86.05
2018-12-08T04:31:24.681Z,85.43
2018-12-08T04:32:24.672Z,85.43
2018-12-08T04:33:24.664Z,84.91
2018-12-08T04:34:24.648Z,85.12
2018-12-08T04:35:24.640Z,85.12
2018-12-08T04:36:24.627Z,85.02
2018-12-08T04:37:24.616Z,85.74
2018-12-08T04:38:24.606Z,85.43
2018-12-08T04:39:24.594Z,84.50
2018-12-08T04:40:24.585Z,85.64
2018-12-08T04:41:24.572Z,85.74
2018-12-08T04:42:24.562Z,85.94
2018-12-08T04:43:24.549Z,85.12
2018-12-08T04:44:24.540Z,85.22
2018-12-08T04:45:24.531Z,84.61
2018-12-08T04:46:24.516Z,85.54
2018-12-08T04:47:24.508Z,86.36
2018-12-08T04:48:24.539Z,84.81
2018-12-08T04:49:24.486Z,85.12
2018-12-08T04:50:24.476Z,85.29
2018-12-08T04:51:24.462Z,84.19
2018-12-08T04:52:24.452Z,84.46
2018-12-08T04:53:24.440Z,85.02
2018-12-08T04:54:24.431Z,85.08
2018-12-08T04:55:24.423Z,85.22
2018-12-08T04:56:24.407Z,84.98
2018-12-08T04:57:24.400Z,85.43
2018-12-08T04:58:24.388Z,86.52
2018-12-08T04:59:24.379Z,86.77
2018-12-08T05:00:24.364Z,85.74
2018-12-08T05:01:24.357Z,85.33
2018-12-08T05:02:24.345Z,85.54
2018-12-08T05:03:24.339Z,85.74
2018-12-08T05:04:24.324Z,85.02
2018-12-08T05:05:24.314Z,85.19
2018-12-08T05:06:24.301Z,85.80
2018-12-08T05:07:24.291Z,86.12
2018-12-08T05:08:24.278Z,84.88
2018-12-08T05:09:24.267Z,85.29
2018-12-08T05:10:24.255Z,85.08
2018-12-08T05:11:24.246Z,83.64
2018-12-08T05:12:24.235Z,84.77
2018-12-08T05:13:24.224Z,84.88
2018-12-08T05:14:24.217Z,84.77
2018-12-08T05:15:24.202Z,86.22
2018-12-08T05:16:24.191Z,86.42
2018-12-08T05:17:24.180Z,86.01
2018-12-08T05:18:24.171Z,86.42
2018-12-08T05:19:24.158Z,86.12
2018-12-08T05:20:24.148Z,85.91
2018-12-08T05:21:24.136Z,86.12
2018-12-08T05:22:24.124Z,86.84
2018-12-08T05:23:24.113Z,87.25
2018-12-08T05:24:24.103Z,87.04
2018-12-08T05:25:24.097Z,86.63
2018-12-08T05:26:24.080Z,86.84
2018-12-08T05:27:24.070Z,86.42
2018-12-08T05:28:24.062Z,87.04
2018-12-08T05:29:24.048Z,85.80
2018-12-08T05:30:24.042Z,86.73
2018-12-08T05:31:24.027Z,87.45
2018-12-08T05:32:24.020Z,86.63
2018-12-08T05:33:24.006Z,86.52
2018-12-08T05:34:23.994Z,85.80
2018-12-08T05:35:23.982Z,86.73
2018-12-08T05:36:23.974Z,86.63
2018-12-08T05:37:23.963Z,86.84
2018-12-08T05:38:23.952Z,86.42
2018-12-08T05:39:23.939Z,85.60
2018-12-08T05:40:23.929Z,85.49
2018-12-08T05:41:23.918Z,84.67
2018-12-08T05:42:23.907Z,85.19
2018-12-08T05:43:23.897Z,86.63
2018-12-08T05:44:23.885Z,86.42
2018-12-08T05:45:23.877Z,85.70
2018-12-08T05:46:23.864Z,85.66
2018-12-08T05:47:23.854Z,86.28
2018-12-08T05:48:23.843Z,84.53
2018-12-08T05:49:23.831Z,84.01
2018-12-08T05:50:23.825Z,85.29
2018-12-08T05:51:23.814Z,85.91
2018-12-08T05:52:23.801Z,85.70
2018-12-08T05:53:23.788Z,87.56
2018-12-08T05:54:23.777Z,88.07
2018-12-08T05:55:23.765Z,87.45
2018-12-08T05:56:23.757Z,88.07
2018-12-08T05:57:23.747Z,88.59
2018-12-08T05:58:23.733Z,88.80
2018-12-08T05:59:23.721Z,89.93
2018-12-08T06:00:23.711Z,89.56
2018-12-08T06:01:23.701Z,89.45
2018-12-08T06:02:23.690Z,89.77
2018-12-08T06:03:23.677Z,88.94
2018-12-08T06:04:23.667Z,87.91
2018-12-08T06:05:23.657Z,88.11
2018-12-08T06:06:23.646Z,88.28
2018-12-08T06:07:23.639Z,87.04
2018-12-08T06:08:23.624Z,87.56
2018-12-08T06:09:23.613Z,86.73
2018-12-08T06:10:23.602Z,86.63
2018-12-08T06:11:23.589Z,86.18
2018-12-08T06:12:23.580Z,86.18
2018-12-08T06:13:23.572Z,85.87
2018-12-08T06:14:23.557Z,86.38
2018-12-08T06:15:23.548Z,86.70
2018-12-08T06:16:23.538Z,87.62
2018-12-08T06:17:23.527Z,87.25
2018-12-08T06:18:23.517Z,87.56
2018-12-08T06:19:23.507Z,87.97
2018-12-08T06:20:23.492Z,87.93
2018-12-08T06:21:23.483Z,86.32
2018-12-08T06:22:23.471Z,86.49
2018-12-08T06:23:23.466Z,87.82
2018-12-08T06:24:23.450Z,87.42
2018-12-08T06:25:23.438Z,87.72
2018-12-08T06:26:23.429Z,88.03
2018-12-08T06:27:23.418Z,87.25
2018-12-08T06:28:23.406Z,86.63
2018-12-08T06:29:23.397Z,87.45
2018-12-08T06:30:23.385Z,88.28
2018-12-08T06:31:23.376Z,89.06
2018-12-08T06:32:23.365Z,89.68
2018-12-08T06:33:23.351Z,89.72
2018-12-08T06:34:23.341Z,89.41
2018-12-08T06:35:23.330Z,88.90
2018-12-08T06:36:23.323Z,89.93
2018-12-08T06:37:23.310Z,89.83
2018-12-08T06:38:25.321Z,89.21
2018-12-08T06:39:23.287Z,89.41
2018-12-08T06:40:29.165Z,89.11
2018-12-08T06:41:24.280Z,89.31
2018-12-08T06:42:23.253Z,89.41
2018-12-08T06:43:23.244Z,89.15
2018-12-08T06:44:23.233Z,89.35
2018-12-08T06:45:23.223Z,90.38
2018-12-08T06:46:23.212Z,91.21
2018-12-08T06:47:23.202Z,91.52
2018-12-08T06:48:23.187Z,91.41
2018-12-08T06:49:23.179Z,90.38
2018-12-08T06:50:23.168Z,89.56
2018-12-08T06:51:23.157Z,88.42
2018-12-08T06:52:23.143Z,88.28
2018-12-08T06:53:23.136Z,89.31
2018-12-08T06:54:23.123Z,90.65
2018-12-08T06:55:23.114Z,89.83
2018-12-08T06:56:23.102Z,89.97
2018-12-08T06:57:23.093Z,91.32
2018-12-08T06:58:23.078Z,91.72
2018-12-08T06:59:23.071Z,91.72
2018-12-08T07:00:23.058Z,91.62
2018-12-08T07:01:23.048Z,91.21
2018-12-08T07:02:23.038Z,91.00
2018-12-08T07:03:23.025Z,90.38
2018-12-08T07:04:23.015Z,90.59
2018-12-08T07:05:23.005Z,89.35
2018-12-08T07:06:22.996Z,89.56
2018-12-08T07:07:22.982Z,89.97
2018-12-08T07:08:22.972Z,90.59
2018-12-08T07:09:22.958Z,90.49
2018-12-08T07:10:22.950Z,89.97
2018-12-08T07:11:22.938Z,89.05
2018-12-08T07:12:22.926Z,89.00
2018-12-08T07:13:22.917Z,88.18
2018-12-08T07:14:22.906Z,87.15
2018-12-08T07:15:22.896Z,87.15
2018-12-08T07:16:22.884Z,87.56
2018-12-08T07:17:22.874Z,87.66
2018-12-08T07:18:22.862Z,87.97
2018-12-08T07:19:22.852Z,88.28
2018-12-08T07:20:22.839Z,88.07
2018-12-08T07:21:22.830Z,88.80
2018-12-08T07:22:22.818Z,88.28
2018-12-08T07:23:22.807Z,87.04
2018-12-08T07:24:22.798Z,86.84
2018-12-08T07:25:22.788Z,85.29
2018-12-08T07:26:22.774Z,85.80
2018-12-08T07:27:22.766Z,87.35
2018-12-08T07:28:22.752Z,87.04
2018-12-08T07:29:22.741Z,88.18
2018-12-08T07:30:22.731Z,88.28
2018-12-08T07:31:22.719Z,87.76
2018-12-08T07:32:22.710Z,87.45
2018-12-08T07:33:22.701Z,88.07
2018-12-08T07:34:24.619Z,87.87
2018-12-08T07:35:22.679Z,86.52
2018-12-08T07:36:22.666Z,86.22
2018-12-08T07:37:22.659Z,86.70
2018-12-08T07:38:22.645Z,88.14
2018-12-08T07:39:22.632Z,85.77
2018-12-08T07:40:22.622Z,85.29
2018-12-08T07:41:22.612Z,84.22
2018-12-08T07:42:22.599Z,85.35
2018-12-08T07:43:22.596Z,85.35
2018-12-08T07:44:22.579Z,84.83
2018-12-08T07:45:22.568Z,84.63
2018-12-08T07:46:22.560Z,85.04
2018-12-08T07:47:22.544Z,84.32
2018-12-08T07:48:22.536Z,86.07
2018-12-08T07:49:22.524Z,84.53
2018-12-08T07:50:22.513Z,84.67
2018-12-08T07:51:22.502Z,85.60
2018-12-08T07:52:22.492Z,85.19
2018-12-08T07:53:22.480Z,84.88
2018-12-08T07:54:22.469Z,85.19
2018-12-08T07:55:22.460Z,84.77
2018-12-08T07:56:22.449Z,84.67
2018-12-08T07:57:22.437Z,85.35
2018-12-08T07:58:22.426Z,84.74
2018-12-08T07:59:22.414Z,84.94
2018-12-08T08:00:22.454Z,85.35
2018-12-08T08:01:22.395Z,85.25
2018-12-08T08:02:22.385Z,85.87
2018-12-08T08:03:22.372Z,86.18
2018-12-08T08:04:22.360Z,86.07
2018-12-08T08:05:22.348Z,86.28
2018-12-08T08:06:22.339Z,86.49
2018-12-08T08:07:22.329Z,85.87
2018-12-08T08:08:22.315Z,85.66
2018-12-08T08:09:22.304Z,84.11
2018-12-08T08:10:22.295Z,83.81
2018-12-08T08:11:22.283Z,83.39
2018-12-08T08:12:22.273Z,84.42
2018-12-08T08:13:22.260Z,86.28
2018-12-08T08:14:22.250Z,85.00
2018-12-08T08:15:22.239Z,84.90
2018-12-08T08:16:22.229Z,84.49
2018-12-08T08:17:22.217Z,84.90
2018-12-08T08:18:22.210Z,83.87
2018-12-08T08:19:22.196Z,82.84
2018-12-08T08:20:22.185Z,83.66
2018-12-08T08:21:22.173Z,84.08
2018-12-08T08:22:22.163Z,82.33
2018-12-08T08:23:22.150Z,83.87
2018-12-08T08:24:22.139Z,82.84
2018-12-08T08:25:22.129Z,83.25
2018-12-08T08:26:22.116Z,84.39
2018-12-08T08:27:22.105Z,84.59
2018-12-08T08:28:22.096Z,83.87
2018-12-08T08:29:22.087Z,83.56
2018-12-08T08:30:22.073Z,83.56
2018-12-08T08:31:22.067Z,84.39
2018-12-08T08:32:22.054Z,82.12
2018-12-08T08:33:22.041Z,83.77
2018-12-08T08:34:22.038Z,84.18
2018-12-08T08:35:22.019Z,82.64
2018-12-08T08:36:22.014Z,82.01
2018-12-08T08:37:22.000Z,83.31
2018-12-08T08:38:21.985Z,82.80
2018-12-08T08:39:21.974Z,83.22
2018-12-08T08:40:21.963Z,81.98
2018-12-08T08:41:21.954Z,81.36
2018-12-08T08:42:21.943Z,81.57
2018-12-08T08:43:21.931Z,82.08
2018-12-08T08:44:21.921Z,83.52
2018-12-08T08:45:21.909Z,80.74
2018-12-08T08:46:21.897Z,83.01
2018-12-08T08:47:21.889Z,82.49
2018-12-08T08:48:21.875Z,82.59
2018-12-08T08:49:21.867Z,82.59
2018-12-08T08:50:21.854Z,81.87
2018-12-08T08:51:21.859Z,80.64
2018-12-08T08:52:21.834Z,81.53
2018-12-08T08:53:21.823Z,81.22
2018-12-08T08:54:21.812Z,81.73
2018-12-08T08:55:21.799Z,80.40
2018-12-08T08:56:21.793Z,81.63
2018-12-08T08:57:21.783Z,83.28
2018-12-08T08:58:21.770Z,80.05
2018-12-08T08:59:21.759Z,80.67
2018-12-08T09:00:21.747Z,79.33
2018-12-08T09:01:21.736Z,79.74
2018-12-08T09:02:21.724Z,79.22
2018-12-08T09:03:21.713Z,79.02
2018-12-08T09:04:21.702Z,80.46
2018-12-08T09:05:21.695Z,81.80
2018-12-08T09:06:21.681Z,81.18
2018-12-08T09:07:21.669Z,79.84
2018-12-08T09:08:21.657Z,80.26
2018-12-08T09:09:21.648Z,80.98
2018-12-08T09:10:21.637Z,80.26
2018-12-08T09:11:21.625Z,80.26
2018-12-08T09:12:21.614Z,80.84
2018-12-08T09:13:21.606Z,80.73
2018-12-08T09:14:21.596Z,80.77
2018-12-08T09:15:21.580Z,80.46
2018-12-08T09:16:21.569Z,80.77
2018-12-08T09:17:21.558Z,80.56
2018-12-08T09:18:21.548Z,81.08
2018-12-08T09:19:21.538Z,81.18
2018-12-08T09:20:21.528Z,78.82
2018-12-08T09:21:21.515Z,79.74
2018-12-08T09:22:21.503Z,80.56
2018-12-08T09:23:21.495Z,80.05
2018-12-08T09:24:21.485Z,80.46
2018-12-08T09:25:21.470Z,80.05
2018-12-08T09:26:21.460Z,78.71
2018-12-08T09:27:21.447Z,80.05
2018-12-08T09:28:21.440Z,80.15
2018-12-08T09:29:21.431Z,79.60
2018-12-08T09:30:21.415Z,78.78
2018-12-08T09:31:21.405Z,78.61
2018-12-08T09:32:21.394Z,80.26
2018-12-08T09:33:21.387Z,80.36
2018-12-08T09:34:21.374Z,78.40
2018-12-08T09:35:21.362Z,78.82
2018-12-08T09:36:21.352Z,80.36
2018-12-08T09:37:21.338Z,79.54
2018-12-08T09:38:21.329Z,78.40
2018-12-08T09:39:21.319Z,79.33
2018-12-08T09:40:21.308Z,79.74
2018-12-08T09:41:21.295Z,79.22
2018-12-08T09:42:21.283Z,77.99
2018-12-08T09:43:21.272Z,80.15
2018-12-08T09:44:21.261Z,78.10
2018-12-08T09:45:21.251Z,77.38
2018-12-08T09:46:21.243Z,77.06
2018-12-08T09:47:21.230Z,77.58
2018-12-08T09:48:21.222Z,77.99
2018-12-08T09:49:21.209Z,79.22
2018-12-08T09:50:21.197Z,78.10
2018-12-08T09:51:21.187Z,78.92
2018-12-08T09:52:21.175Z,78.50
2018-12-08T09:53:21.166Z,77.89
2018-12-08T09:54:21.155Z,79.12
2018-12-08T09:55:21.144Z,77.89
2018-12-08T09:56:21.138Z,79.19
2018-12-08T09:57:21.120Z,77.44
2018-12-08T09:58:21.108Z,79.02
2018-12-08T09:59:21.097Z,78.71
2018-12-08T10:00:21.088Z,77.89
2018-12-08T10:01:21.075Z,78.30
2018-12-08T10:02:21.065Z,78.30
2018-12-08T10:03:21.058Z,79.22
2018-12-08T10:04:21.043Z,78.82
2018-12-08T10:05:21.033Z,79.33
2018-12-08T10:06:21.023Z,79.08
2018-12-08T10:07:21.013Z,79.54
2018-12-08T10:08:21.000Z,79.91
2018-12-08T10:09:20.989Z,78.82
2018-12-08T10:10:20.977Z,78.71
2018-12-08T10:11:21.063Z,78.71
2018-12-08T10:12:20.956Z,78.20
2018-12-08T10:13:20.944Z,78.82
2018-12-08T10:14:20.933Z,79.22
2018-12-08T10:15:20.922Z,78.20
2018-12-08T10:16:20.911Z,79.12
2018-12-08T10:17:20.900Z,79.22
2018-12-08T10:18:20.894Z,78.92
2018-12-08T10:19:20.882Z,79.94
2018-12-08T10:20:20.869Z,79.74
2018-12-08T10:21:20.859Z,81.18
2018-12-08T10:22:20.847Z,81.08
2018-12-08T10:23:20.836Z,80.87
2018-12-08T10:24:20.823Z,81.80
2018-12-08T10:25:20.814Z,81.39
2018-12-08T10:26:20.805Z,80.36
2018-12-08T10:27:20.792Z,80.56
2018-12-08T10:28:20.782Z,80.77
2018-12-08T10:29:20.770Z,82.00
2018-12-08T10:30:20.761Z,82.35
2018-12-08T10:31:20.747Z,82.97
2018-12-08T10:32:20.738Z,83.69
2018-12-08T10:33:20.727Z,82.97
2018-12-08T10:34:20.718Z,82.87
2018-12-08T10:35:20.704Z,84.35
2018-12-08T10:36:20.693Z,84.76
2018-12-08T10:37:20.683Z,84.55
2018-12-08T10:38:20.673Z,83.73
2018-12-08T10:39:20.662Z,84.24
2018-12-08T10:40:20.649Z,83.63
2018-12-08T10:41:20.643Z,85.48
2018-12-08T10:42:20.628Z,87.03
2018-12-08T10:43:20.619Z,86.30
2018-12-08T10:44:20.613Z,86.47
2018-12-08T10:45:20.594Z,86.30
2018-12-08T10:46:20.585Z,85.85
2018-12-08T10:47:20.571Z,85.85
2018-12-08T10:48:20.560Z,85.75
2018-12-08T10:49:20.550Z,83.69
2018-12-08T10:50:20.542Z,84.41
2018-12-08T10:51:20.528Z,87.09
2018-12-08T10:52:20.518Z,87.09
2018-12-08T10:53:20.507Z,85.96
2018-12-08T10:54:20.497Z,86.47
2018-12-08T10:55:20.486Z,85.24
2018-12-08T10:56:20.472Z,85.03
2018-12-08T10:57:20.466Z,84.72
2018-12-08T10:58:20.450Z,85.85
2018-12-08T10:59:20.439Z,85.71
2018-12-08T11:00:20.431Z,83.96
2018-12-08T11:01:20.420Z,85.19
2018-12-08T11:02:20.406Z,86.74
2018-12-08T11:03:20.395Z,88.07
2018-12-08T11:04:20.387Z,87.97
2018-12-08T11:05:20.374Z,85.51
2018-12-08T11:06:20.363Z,85.91
2018-12-08T11:07:20.352Z,86.68
2018-12-08T11:08:20.340Z,86.57
2018-12-08T11:09:20.331Z,86.05
2018-12-08T11:10:20.320Z,86.74
2018-12-08T11:11:20.310Z,86.98
2018-12-08T11:12:20.296Z,86.47
2018-12-08T11:13:20.286Z,86.98
2018-12-08T11:14:20.278Z,86.88
2018-12-08T11:15:20.268Z,87.19
2018-12-08T11:16:20.254Z,87.46
2018-12-08T11:17:20.242Z,88.07
2018-12-08T11:18:20.230Z,87.70
2018-12-08T11:19:20.222Z,87.91
2018-12-08T11:20:20.210Z,88.73
2018-12-08T11:21:20.198Z,88.63
2018-12-08T11:22:20.187Z,88.84
2018-12-08T11:23:20.176Z,89.14
2018-12-08T11:24:20.166Z,88.94
2018-12-08T11:25:20.156Z,89.56
2018-12-08T11:26:20.144Z,88.73
2018-12-08T11:27:20.139Z,89.31
2018-12-08T11:28:20.122Z,88.90
2018-12-08T11:29:20.112Z,88.69
2018-12-08T11:30:20.103Z,89.11
2018-12-08T11:31:20.090Z,87.25
2018-12-08T11:32:20.079Z,87.35
2018-12-08T11:33:20.068Z,87.67
2018-12-08T11:34:20.064Z,88.28
2018-12-08T11:35:20.097Z,88.28
2018-12-08T11:36:20.035Z,88.28
2018-12-08T11:37:20.024Z,88.45
2018-12-08T11:38:20.013Z,88.03
2018-12-08T11:39:20.003Z,88.96
2018-12-08T11:40:19.992Z,88.65
2018-12-08T11:41:19.979Z,87.83
2018-12-08T11:42:19.969Z,86.80
2018-12-08T11:43:19.960Z,87.21
2018-12-08T11:44:19.948Z,87.11
2018-12-08T11:45:19.936Z,86.90
2018-12-08T11:46:19.926Z,86.08
2018-12-08T11:47:19.914Z,86.60
2018-12-08T11:48:19.904Z,86.70
2018-12-08T11:49:19.894Z,85.36
2018-12-08T11:50:19.886Z,86.24
2018-12-08T11:51:19.872Z,85.32
2018-12-08T11:52:19.859Z,84.91
2018-12-08T11:53:19.849Z,84.91
2018-12-08T11:54:19.840Z,86.76
2018-12-08T11:55:19.828Z,86.56
2018-12-08T11:56:19.825Z,86.96
2018-12-08T11:57:19.807Z,86.45
2018-12-08T11:58:19.794Z,87.89
2018-12-08T11:59:19.785Z,87.89
2018-12-08T12:00:19.775Z,87.79
2018-12-08T12:01:19.764Z,88.40
2018-12-08T12:02:19.749Z,87.38
2018-12-08T12:03:19.740Z,85.53
2018-12-08T12:04:19.728Z,86.04
2018-12-08T12:05:19.716Z,86.56
2018-12-08T12:06:19.706Z,86.66
2018-12-08T12:07:19.696Z,85.63
2018-12-08T12:08:19.685Z,85.90
2018-12-08T12:09:19.674Z,86.21
2018-12-08T12:10:19.665Z,86.86
2018-12-08T12:11:19.650Z,86.76
2018-12-08T12:12:19.643Z,86.96
2018-12-08T12:13:19.630Z,87.48
2018-12-08T12:14:19.620Z,88.10
2018-12-08T12:15:19.609Z,88.92
2018-12-08T12:16:19.599Z,89.64
2018-12-08T12:17:19.587Z,89.74
2018-12-08T12:18:19.575Z,89.84
2018-12-08T12:19:19.565Z,90.05
2018-12-08T12:20:19.554Z,88.92
2018-12-08T12:21:19.542Z,88.92
2018-12-08T12:22:19.529Z,88.57
2018-12-08T12:23:19.520Z,87.44
2018-12-08T12:24:19.508Z,88.33
2018-12-08T12:25:19.500Z,88.33
2018-12-08T12:26:19.488Z,88.53
2018-12-08T12:27:19.478Z,88.01
2018-12-08T12:28:19.466Z,88.43
2018-12-08T12:29:19.456Z,88.22
2018-12-08T12:30:19.443Z,87.50
2018-12-08T12:31:19.432Z,88.33
2018-12-08T12:32:19.427Z,88.73
2018-12-08T12:33:19.412Z,88.33
2018-12-08T12:34:19.401Z,88.88
2018-12-08T12:35:19.390Z,90.42
2018-12-08T12:36:19.379Z,90.01
2018-12-08T12:37:19.366Z,89.29
2018-12-08T12:38:19.361Z,89.91
2018-12-08T12:39:19.348Z,91.24
2018-12-08T12:40:19.334Z,89.80
2018-12-08T12:41:19.326Z,90.36
2018-12-08T12:42:19.314Z,92.31
2018-12-08T12:43:19.300Z,91.80
2018-12-08T12:44:19.290Z,92.73
2018-12-08T12:45:19.280Z,91.90
2018-12-08T12:46:19.269Z,92.41
2018-12-08T12:47:19.259Z,92.82
2018-12-08T12:48:19.247Z,92.11
2018-12-08T12:49:19.237Z,93.44
2018-12-08T12:50:19.225Z,93.96
2018-12-08T12:51:19.215Z,93.85
2018-12-08T12:52:19.205Z,93.44